sensor_id;sensor_type;location;lat;lon;timestamp;pressure;altitude;pressure_sealevel;temperature;humidity
740;BME280;354;42.694;23.336;2022-12-18T00:00:40;96048.66;;;7.50;100.00
740;BME280;354;42.694;23.336;2022-12-18T00:03:05;96046.75;;;7.44;100.00
740;BME280;354;42.694;23.336;2022-12-18T00:05:31;96051.91;;;7.21;100.00
740;BME280;354;42.694;23.336;2022-12-18T00:07:56;96060.09;;;7.26;100.00
740;BME280;354;42.694;23.336;2022-12-18T00:10:21;96054.06;;;7.18;100.00
740;BME280;354;42.694;23.336;2022-12-18T00:12:47;96060.72;;;7.28;100.00
740;BME280;354;42.694;23.336;2022-12-18T00:15:12;96060.50;;;6.99;100.00
740;BME280;354;42.694;23.336;2022-12-18T00:17:37;96049.72;;;6.94;100.00
740;BME280;354;42.694;23.336;2022-12-18T00:20:03;96066.03;;;7.04;100.00
740;BME280;354;42.694;23.336;2022-12-18T00:22:28;96060.19;;;6.85;100.00
740;BME280;354;42.694;23.336;2022-12-18T00:24:54;96075.53;;;6.97;100.00
740;BME280;354;42.694;23.336;2022-12-18T00:27:19;96077.31;;;7.04;100.00
740;BME280;354;42.694;23.336;2022-12-18T00:29:44;96072.56;;;7.08;100.00
740;BME280;354;42.694;23.336;2022-12-18T00:32:10;96087.13;;;7.02;100.00
740;BME280;354;42.694;23.336;2022-12-18T00:34:35;96064.28;;;6.88;100.00
740;BME280;354;42.694;23.336;2022-12-18T00:37:01;96095.19;;;6.84;100.00
740;BME280;354;42.694;23.336;2022-12-18T00:39:26;96085.03;;;6.90;100.00
740;BME280;354;42.694;23.336;2022-12-18T00:41:51;96083.53;;;6.95;100.00
740;BME280;354;42.694;23.336;2022-12-18T00:44:35;96080.13;;;6.86;100.00
740;BME280;354;42.694;23.336;2022-12-18T00:47:00;96081.25;;;6.92;100.00
740;BME280;354;42.694;23.336;2022-12-18T00:49:26;96096.03;;;6.77;100.00
740;BME280;354;42.694;23.336;2022-12-18T00:51:51;96090.59;;;6.86;100.00
740;BME280;354;42.694;23.336;2022-12-18T00:54:17;96096.00;;;6.93;100.00
740;BME280;354;42.694;23.336;2022-12-18T00:56:42;96101.38;;;6.83;100.00
740;BME280;354;42.694;23.336;2022-12-18T00:59:08;96108.59;;;6.73;100.00
740;BME280;354;42.694;23.336;2022-12-18T01:01:33;96102.06;;;6.61;100.00
740;BME280;354;42.694;23.336;2022-12-18T01:04:00;96096.34;;;6.57;100.00
740;BME280;354;42.694;23.336;2022-12-18T01:06:25;96112.19;;;6.64;100.00
740;BME280;354;42.694;23.336;2022-12-18T01:08:51;96103.88;;;6.36;100.00
740;BME280;354;42.694;23.336;2022-12-18T01:11:18;96117.44;;;6.40;100.00
740;BME280;354;42.694;23.336;2022-12-18T01:13:44;96120.03;;;6.40;100.00
740;BME280;354;42.694;23.336;2022-12-18T01:16:14;96123.78;;;6.29;100.00
740;BME280;354;42.694;23.336;2022-12-18T01:18:40;96116.13;;;6.11;100.00
740;BME280;354;42.694;23.336;2022-12-18T01:21:07;96125.56;;;6.20;100.00
740;BME280;354;42.694;23.336;2022-12-18T01:23:33;96136.03;;;6.28;100.00
740;BME280;354;42.694;23.336;2022-12-18T01:26:08;96134.75;;;6.32;100.00
740;BME280;354;42.694;23.336;2022-12-18T01:28:33;96135.72;;;6.23;100.00
740;BME280;354;42.694;23.336;2022-12-18T01:31:30;96129.66;;;6.06;100.00
740;BME280;354;42.694;23.336;2022-12-18T01:33:55;96128.16;;;6.04;100.00
740;BME280;354;42.694;23.336;2022-12-18T01:36:29;96136.31;;;6.01;100.00
740;BME280;354;42.694;23.336;2022-12-18T01:38:55;96135.00;;;5.97;100.00
740;BME280;354;42.694;23.336;2022-12-18T01:41:23;96141.81;;;5.90;100.00
740;BME280;354;42.694;23.336;2022-12-18T01:43:55;96156.28;;;5.76;100.00
740;BME280;354;42.694;23.336;2022-12-18T01:46:23;96141.78;;;5.81;100.00
740;BME280;354;42.694;23.336;2022-12-18T01:48:52;96146.91;;;5.91;100.00
740;BME280;354;42.694;23.336;2022-12-18T01:51:18;96151.09;;;5.84;100.00
740;BME280;354;42.694;23.336;2022-12-18T01:53:45;96150.44;;;5.82;100.00
740;BME280;354;42.694;23.336;2022-12-18T01:56:14;96155.00;;;5.72;100.00
740;BME280;354;42.694;23.336;2022-12-18T01:59:00;96155.47;;;5.67;100.00
740;BME280;354;42.694;23.336;2022-12-18T02:01:29;96148.41;;;5.60;100.00
740;BME280;354;42.694;23.336;2022-12-18T02:03:56;96155.75;;;5.56;100.00
740;BME280;354;42.694;23.336;2022-12-18T02:06:34;96141.47;;;5.34;100.00
740;BME280;354;42.694;23.336;2022-12-18T02:09:14;96164.19;;;5.50;100.00
740;BME280;354;42.694;23.336;2022-12-18T02:17:18;96160.91;;;5.48;100.00
740;BME280;354;42.694;23.336;2022-12-18T02:22:50;96141.00;;;5.39;100.00
740;BME280;354;42.694;23.336;2022-12-18T02:27:56;96182.13;;;5.53;100.00
740;BME280;354;42.694;23.336;2022-12-18T02:30:26;96184.66;;;5.37;100.00
740;BME280;354;42.694;23.336;2022-12-18T02:32:53;96178.16;;;5.41;100.00
740;BME280;354;42.694;23.336;2022-12-18T02:35:22;96170.00;;;5.44;100.00
740;BME280;354;42.694;23.336;2022-12-18T02:37:49;96174.59;;;5.42;100.00
740;BME280;354;42.694;23.336;2022-12-18T02:40:17;96178.53;;;5.46;100.00
740;BME280;354;42.694;23.336;2022-12-18T02:42:43;96164.13;;;5.34;100.00
740;BME280;354;42.694;23.336;2022-12-18T02:45:08;96189.06;;;5.36;100.00
740;BME280;354;42.694;23.336;2022-12-18T02:47:38;96179.44;;;5.37;100.00
740;BME280;354;42.694;23.336;2022-12-18T02:50:25;96194.75;;;5.32;100.00
740;BME280;354;42.694;23.336;2022-12-18T02:53:24;96193.72;;;5.50;100.00
740;BME280;354;42.694;23.336;2022-12-18T02:56:19;96188.59;;;5.41;100.00
740;BME280;354;42.694;23.336;2022-12-18T02:59:06;96179.59;;;5.35;100.00
740;BME280;354;42.694;23.336;2022-12-18T03:01:39;96196.25;;;5.34;100.00
740;BME280;354;42.694;23.336;2022-12-18T03:04:12;96175.22;;;5.10;100.00
740;BME280;354;42.694;23.336;2022-12-18T03:06:44;96197.97;;;4.99;100.00
740;BME280;354;42.694;23.336;2022-12-18T03:09:15;96174.25;;;4.85;100.00
740;BME280;354;42.694;23.336;2022-12-18T03:11:52;96188.41;;;5.08;100.00
740;BME280;354;42.694;23.336;2022-12-18T03:14:38;96208.72;;;5.22;100.00
740;BME280;354;42.694;23.336;2022-12-18T03:17:09;96208.72;;;5.22;100.00
740;BME280;354;42.694;23.336;2022-12-18T03:19:35;96183.66;;;5.03;100.00
740;BME280;354;42.694;23.336;2022-12-18T03:22:04;96207.59;;;5.25;100.00
740;BME280;354;42.694;23.336;2022-12-18T03:24:33;96215.56;;;5.23;100.00
740;BME280;354;42.694;23.336;2022-12-18T03:27:01;96209.91;;;5.28;100.00
740;BME280;354;42.694;23.336;2022-12-18T03:29:35;96217.56;;;5.29;100.00
740;BME280;354;42.694;23.336;2022-12-18T03:32:14;96223.13;;;5.35;100.00
740;BME280;354;42.694;23.336;2022-12-18T03:34:42;96220.81;;;5.32;100.00
740;BME280;354;42.694;23.336;2022-12-18T03:37:09;96228.72;;;5.40;100.00
740;BME280;354;42.694;23.336;2022-12-18T03:39:35;96225.31;;;5.21;100.00
740;BME280;354;42.694;23.336;2022-12-18T03:47:36;96228.78;;;5.22;100.00
740;BME280;354;42.694;23.336;2022-12-18T03:55:35;96252.34;;;5.38;100.00
740;BME280;354;42.694;23.336;2022-12-18T03:58:03;96249.78;;;5.72;100.00
740;BME280;354;42.694;23.336;2022-12-18T04:00:31;96255.34;;;5.77;100.00
740;BME280;354;42.694;23.336;2022-12-18T04:02:58;96253.56;;;5.52;100.00
740;BME280;354;42.694;23.336;2022-12-18T04:05:26;96269.53;;;6.09;100.00
740;BME280;354;42.694;23.336;2022-12-18T04:07:53;96267.03;;;6.42;100.00
740;BME280;354;42.694;23.336;2022-12-18T04:10:19;96268.13;;;6.23;100.00
740;BME280;354;42.694;23.336;2022-12-18T04:12:45;96259.06;;;6.01;100.00
740;BME280;354;42.694;23.336;2022-12-18T04:15:11;96265.97;;;5.84;100.00
740;BME280;354;42.694;23.336;2022-12-18T04:17:37;96270.06;;;5.87;100.00
740;BME280;354;42.694;23.336;2022-12-18T04:20:03;96276.19;;;5.69;100.00
740;BME280;354;42.694;23.336;2022-12-18T04:22:28;96277.25;;;5.59;100.00
740;BME280;354;42.694;23.336;2022-12-18T04:24:53;96281.75;;;5.74;100.00
740;BME280;354;42.694;23.336;2022-12-18T04:27:19;96290.72;;;5.72;100.00
740;BME280;354;42.694;23.336;2022-12-18T04:29:44;96292.16;;;5.66;100.00
740;BME280;354;42.694;23.336;2022-12-18T04:32:10;96266.56;;;5.44;100.00
740;BME280;354;42.694;23.336;2022-12-18T04:34:35;96304.28;;;5.49;100.00
740;BME280;354;42.694;23.336;2022-12-18T04:37:00;96292.44;;;5.37;100.00
740;BME280;354;42.694;23.336;2022-12-18T04:39:26;96298.97;;;5.33;100.00
740;BME280;354;42.694;23.336;2022-12-18T04:41:51;96310.25;;;5.42;100.00
740;BME280;354;42.694;23.336;2022-12-18T04:44:17;96299.47;;;5.37;100.00
740;BME280;354;42.694;23.336;2022-12-18T04:46:42;96312.88;;;5.42;100.00
740;BME280;354;42.694;23.336;2022-12-18T04:49:07;96320.94;;;5.31;100.00
740;BME280;354;42.694;23.336;2022-12-18T04:51:35;96314.44;;;5.35;100.00
740;BME280;354;42.694;23.336;2022-12-18T04:54:00;96298.84;;;5.17;100.00
740;BME280;354;42.694;23.336;2022-12-18T04:56:26;96332.72;;;5.35;100.00
740;BME280;354;42.694;23.336;2022-12-18T04:58:51;96333.94;;;5.22;100.00
740;BME280;354;42.694;23.336;2022-12-18T05:01:18;96331.03;;;5.08;100.00
740;BME280;354;42.694;23.336;2022-12-18T05:03:43;96329.44;;;5.15;100.00
740;BME280;354;42.694;23.336;2022-12-18T05:06:09;96335.66;;;4.96;100.00
740;BME280;354;42.694;23.336;2022-12-18T05:08:34;96351.41;;;4.94;100.00
740;BME280;354;42.694;23.336;2022-12-18T05:11:08;96350.03;;;5.00;100.00
740;BME280;354;42.694;23.336;2022-12-18T05:13:35;96346.44;;;5.01;100.00
740;BME280;354;42.694;23.336;2022-12-18T05:16:01;96351.28;;;4.96;100.00
740;BME280;354;42.694;23.336;2022-12-18T05:18:27;96354.41;;;4.99;100.00
740;BME280;354;42.694;23.336;2022-12-18T05:20:53;96369.97;;;5.09;100.00
740;BME280;354;42.694;23.336;2022-12-18T05:23:21;96365.44;;;5.11;100.00
740;BME280;354;42.694;23.336;2022-12-18T05:26:00;96367.22;;;4.93;100.00
740;BME280;354;42.694;23.336;2022-12-18T05:28:28;96368.63;;;4.87;100.00
740;BME280;354;42.694;23.336;2022-12-18T05:30:55;96352.00;;;4.70;100.00
740;BME280;354;42.694;23.336;2022-12-18T05:33:22;96365.19;;;4.87;100.00
740;BME280;354;42.694;23.336;2022-12-18T05:35:56;96386.88;;;4.87;100.00
740;BME280;354;42.694;23.336;2022-12-18T05:38:23;96384.97;;;4.89;100.00
740;BME280;354;42.694;23.336;2022-12-18T05:40:50;96387.56;;;4.89;100.00
740;BME280;354;42.694;23.336;2022-12-18T05:43:16;96384.66;;;4.92;100.00
740;BME280;354;42.694;23.336;2022-12-18T05:45:42;96397.53;;;4.94;100.00
740;BME280;354;42.694;23.336;2022-12-18T05:48:08;96387.09;;;4.94;100.00
740;BME280;354;42.694;23.336;2022-12-18T05:50:37;96399.84;;;4.79;100.00
740;BME280;354;42.694;23.336;2022-12-18T05:53:04;96398.53;;;4.65;100.00
740;BME280;354;42.694;23.336;2022-12-18T05:55:38;96384.72;;;4.55;100.00
740;BME280;354;42.694;23.336;2022-12-18T05:58:05;96392.69;;;4.81;100.00
740;BME280;354;42.694;23.336;2022-12-18T06:00:32;96394.22;;;4.74;100.00
740;BME280;354;42.694;23.336;2022-12-18T06:02:57;96406.53;;;4.82;100.00
740;BME280;354;42.694;23.336;2022-12-18T06:05:23;96396.47;;;4.69;100.00
740;BME280;354;42.694;23.336;2022-12-18T06:07:48;96399.16;;;4.49;100.00
740;BME280;354;42.694;23.336;2022-12-18T06:10:14;96396.31;;;4.43;100.00
740;BME280;354;42.694;23.336;2022-12-18T06:12:39;96401.63;;;4.51;100.00
740;BME280;354;42.694;23.336;2022-12-18T06:15:05;96406.25;;;4.57;100.00
740;BME280;354;42.694;23.336;2022-12-18T06:17:31;96403.78;;;4.56;100.00
740;BME280;354;42.694;23.336;2022-12-18T06:19:57;96404.44;;;4.67;100.00
740;BME280;354;42.694;23.336;2022-12-18T06:22:23;96410.31;;;4.69;100.00
740;BME280;354;42.694;23.336;2022-12-18T06:24:48;96410.09;;;4.81;100.00
740;BME280;354;42.694;23.336;2022-12-18T06:27:13;96425.41;;;4.66;100.00
740;BME280;354;42.694;23.336;2022-12-18T06:29:39;96426.91;;;4.68;100.00
740;BME280;354;42.694;23.336;2022-12-18T06:32:04;96425.66;;;4.72;100.00
740;BME280;354;42.694;23.336;2022-12-18T06:34:30;96437.91;;;4.62;100.00
740;BME280;354;42.694;23.336;2022-12-18T06:36:55;96436.25;;;4.61;100.00
740;BME280;354;42.694;23.336;2022-12-18T06:39:20;96420.53;;;4.53;100.00
740;BME280;354;42.694;23.336;2022-12-18T06:41:46;96443.41;;;4.87;100.00
740;BME280;354;42.694;23.336;2022-12-18T06:44:11;96446.41;;;4.92;100.00
740;BME280;354;42.694;23.336;2022-12-18T06:46:36;96456.09;;;4.99;100.00
740;BME280;354;42.694;23.336;2022-12-18T06:49:03;96438.97;;;4.97;100.00
740;BME280;354;42.694;23.336;2022-12-18T06:51:28;96447.25;;;4.83;100.00
740;BME280;354;42.694;23.336;2022-12-18T06:53:54;96461.31;;;4.72;100.00
740;BME280;354;42.694;23.336;2022-12-18T06:56:19;96455.91;;;4.83;100.00
740;BME280;354;42.694;23.336;2022-12-18T06:58:45;96454.00;;;4.85;100.00
740;BME280;354;42.694;23.336;2022-12-18T07:01:11;96428.13;;;4.74;100.00
740;BME280;354;42.694;23.336;2022-12-18T07:03:38;96465.38;;;4.84;100.00
740;BME280;354;42.694;23.336;2022-12-18T07:06:04;96459.97;;;4.95;100.00
740;BME280;354;42.694;23.336;2022-12-18T07:08:30;96473.00;;;4.95;100.00
740;BME280;354;42.694;23.336;2022-12-18T07:10:56;96465.03;;;4.97;100.00
740;BME280;354;42.694;23.336;2022-12-18T07:13:22;96466.41;;;5.01;100.00
740;BME280;354;42.694;23.336;2022-12-18T07:15:48;96469.72;;;4.93;100.00
740;BME280;354;42.694;23.336;2022-12-18T07:18:13;96475.91;;;4.92;100.00
740;BME280;354;42.694;23.336;2022-12-18T07:20:38;96475.69;;;5.03;100.00
740;BME280;354;42.694;23.336;2022-12-18T07:23:04;96453.25;;;4.93;100.00
740;BME280;354;42.694;23.336;2022-12-18T07:25:33;96470.13;;;4.89;100.00
740;BME280;354;42.694;23.336;2022-12-18T07:27:59;96485.94;;;4.87;100.00
740;BME280;354;42.694;23.336;2022-12-18T07:30:25;96477.50;;;4.75;100.00
740;BME280;354;42.694;23.336;2022-12-18T07:32:50;96491.75;;;4.71;100.00
740;BME280;354;42.694;23.336;2022-12-18T07:35:15;96485.84;;;4.79;100.00
740;BME280;354;42.694;23.336;2022-12-18T07:37:41;96486.81;;;4.78;100.00
740;BME280;354;42.694;23.336;2022-12-18T07:40:07;96490.31;;;4.59;100.00
740;BME280;354;42.694;23.336;2022-12-18T07:42:32;96486.22;;;4.57;100.00
740;BME280;354;42.694;23.336;2022-12-18T07:44:58;96498.34;;;4.75;100.00
740;BME280;354;42.694;23.336;2022-12-18T07:47:25;96482.81;;;4.84;100.00
740;BME280;354;42.694;23.336;2022-12-18T07:49:50;96508.53;;;4.69;100.00
740;BME280;354;42.694;23.336;2022-12-18T07:52:15;96496.50;;;4.58;100.00
740;BME280;354;42.694;23.336;2022-12-18T07:54:41;96514.56;;;4.60;100.00
740;BME280;354;42.694;23.336;2022-12-18T07:57:07;96506.09;;;4.58;100.00
740;BME280;354;42.694;23.336;2022-12-18T07:59:32;96516.13;;;4.90;100.00
740;BME280;354;42.694;23.336;2022-12-18T08:01:58;96511.31;;;4.95;100.00
740;BME280;354;42.694;23.336;2022-12-18T08:04:24;96517.53;;;4.84;100.00
740;BME280;354;42.694;23.336;2022-12-18T08:06:49;96522.25;;;4.98;100.00
740;BME280;354;42.694;23.336;2022-12-18T08:09:15;96527.63;;;4.97;100.00
740;BME280;354;42.694;23.336;2022-12-18T08:11:40;96525.16;;;4.95;100.00
740;BME280;354;42.694;23.336;2022-12-18T08:14:05;96531.25;;;5.14;100.00
740;BME280;354;42.694;23.336;2022-12-18T08:16:31;96535.25;;;5.08;100.00
740;BME280;354;42.694;23.336;2022-12-18T08:18:56;96518.41;;;4.65;100.00
740;BME280;354;42.694;23.336;2022-12-18T08:21:31;96550.25;;;4.59;100.00
740;BME280;354;42.694;23.336;2022-12-18T08:23:58;96554.13;;;4.83;100.00
740;BME280;354;42.694;23.336;2022-12-18T08:26:26;96565.72;;;4.70;100.00
740;BME280;354;42.694;23.336;2022-12-18T08:28:54;96557.50;;;4.65;100.00
740;BME280;354;42.694;23.336;2022-12-18T08:31:20;96567.25;;;4.63;100.00
740;BME280;354;42.694;23.336;2022-12-18T08:33:48;96565.03;;;4.68;100.00
740;BME280;354;42.694;23.336;2022-12-18T08:36:14;96565.44;;;4.73;100.00
740;BME280;354;42.694;23.336;2022-12-18T08:38:40;96567.69;;;4.96;100.00
740;BME280;354;42.694;23.336;2022-12-18T08:41:07;96564.03;;;5.16;100.00
740;BME280;354;42.694;23.336;2022-12-18T08:43:33;96551.81;;;5.17;100.00
740;BME280;354;42.694;23.336;2022-12-18T08:46:18;96559.06;;;5.23;100.00
740;BME280;354;42.694;23.336;2022-12-18T08:48:44;96565.25;;;5.22;100.00
740;BME280;354;42.694;23.336;2022-12-18T08:51:10;96576.63;;;5.21;100.00
740;BME280;354;42.694;23.336;2022-12-18T08:53:36;96566.16;;;5.31;100.00
740;BME280;354;42.694;23.336;2022-12-18T08:56:03;96569.13;;;5.18;100.00
740;BME280;354;42.694;23.336;2022-12-18T08:58:29;96576.34;;;5.24;100.00
740;BME280;354;42.694;23.336;2022-12-18T09:00:59;96560.34;;;5.37;100.00
740;BME280;354;42.694;23.336;2022-12-18T09:03:25;96564.06;;;5.62;100.00
740;BME280;354;42.694;23.336;2022-12-18T09:05:50;96568.03;;;5.38;100.00
740;BME280;354;42.694;23.336;2022-12-18T09:08:15;96562.56;;;5.59;100.00
740;BME280;354;42.694;23.336;2022-12-18T09:10:42;96568.78;;;5.31;100.00
740;BME280;354;42.694;23.336;2022-12-18T09:13:10;96572.13;;;5.23;100.00
740;BME280;354;42.694;23.336;2022-12-18T09:15:40;96564.16;;;5.42;100.00
740;BME280;354;42.694;23.336;2022-12-18T09:18:06;96562.63;;;5.49;100.00
740;BME280;354;42.694;23.336;2022-12-18T09:20:32;96567.97;;;5.48;100.00
740;BME280;354;42.694;23.336;2022-12-18T09:22:57;96562.31;;;5.35;100.00
740;BME280;354;42.694;23.336;2022-12-18T09:25:22;96565.56;;;5.37;100.00
740;BME280;354;42.694;23.336;2022-12-18T09:27:48;96567.13;;;5.29;100.00
740;BME280;354;42.694;23.336;2022-12-18T09:30:13;96554.28;;;5.64;100.00
740;BME280;354;42.694;23.336;2022-12-18T09:32:38;96565.03;;;5.61;100.00
740;BME280;354;42.694;23.336;2022-12-18T09:35:04;96563.41;;;5.32;100.00
740;BME280;354;42.694;23.336;2022-12-18T09:37:30;96569.16;;;5.36;100.00
740;BME280;354;42.694;23.336;2022-12-18T09:39:55;96560.31;;;5.64;100.00
740;BME280;354;42.694;23.336;2022-12-18T09:42:22;96566.88;;;5.96;100.00
740;BME280;354;42.694;23.336;2022-12-18T09:44:57;96563.59;;;5.94;100.00
740;BME280;354;42.694;23.336;2022-12-18T09:47:30;96567.69;;;5.96;100.00
740;BME280;354;42.694;23.336;2022-12-18T09:50:03;96563.66;;;6.02;100.00
740;BME280;354;42.694;23.336;2022-12-18T09:52:45;96572.25;;;6.12;100.00
740;BME280;354;42.694;23.336;2022-12-18T09:57:57;96563.03;;;5.72;100.00
740;BME280;354;42.694;23.336;2022-12-18T10:00:26;96562.69;;;6.03;100.00
740;BME280;354;42.694;23.336;2022-12-18T10:02:53;96557.66;;;5.74;100.00
740;BME280;354;42.694;23.336;2022-12-18T10:10:52;96565.06;;;6.14;100.00
740;BME280;354;42.694;23.336;2022-12-18T10:13:34;96564.13;;;5.88;100.00
740;BME280;354;42.694;23.336;2022-12-18T10:16:24;96557.28;;;5.69;100.00
740;BME280;354;42.694;23.336;2022-12-18T10:21:45;96566.34;;;5.92;100.00
740;BME280;354;42.694;23.336;2022-12-18T10:27:14;96566.81;;;6.05;100.00
740;BME280;354;42.694;23.336;2022-12-18T10:29:41;96562.66;;;6.39;100.00
740;BME280;354;42.694;23.336;2022-12-18T10:32:17;96560.56;;;6.42;100.00
740;BME280;354;42.694;23.336;2022-12-18T10:34:47;96541.31;;;6.25;100.00
740;BME280;354;42.694;23.336;2022-12-18T10:37:21;96555.16;;;6.62;100.00
740;BME280;354;42.694;23.336;2022-12-18T10:40:09;96556.13;;;6.17;100.00
740;BME280;354;42.694;23.336;2022-12-18T10:42:36;96562.25;;;6.51;100.00
740;BME280;354;42.694;23.336;2022-12-18T10:45:11;96554.56;;;6.06;100.00
740;BME280;354;42.694;23.336;2022-12-18T10:47:43;96545.44;;;6.28;100.00
740;BME280;354;42.694;23.336;2022-12-18T10:50:29;96539.06;;;6.30;100.00
740;BME280;354;42.694;23.336;2022-12-18T10:53:00;96559.81;;;6.50;100.00
740;BME280;354;42.694;23.336;2022-12-18T10:55:32;96566.06;;;6.57;100.00
740;BME280;354;42.694;23.336;2022-12-18T10:58:22;96556.88;;;6.53;100.00
740;BME280;354;42.694;23.336;2022-12-18T11:03:47;96558.06;;;6.58;100.00
740;BME280;354;42.694;23.336;2022-12-18T11:06:24;96566.31;;;6.72;100.00
740;BME280;354;42.694;23.336;2022-12-18T11:09:18;96565.41;;;6.37;100.00
740;BME280;354;42.694;23.336;2022-12-18T11:11:52;96567.63;;;6.06;100.00
740;BME280;354;42.694;23.336;2022-12-18T11:14:25;96565.88;;;6.15;100.00
740;BME280;354;42.694;23.336;2022-12-18T11:16:52;96564.91;;;6.33;100.00
740;BME280;354;42.694;23.336;2022-12-18T11:19:38;96560.44;;;6.44;100.00
740;BME280;354;42.694;23.336;2022-12-18T11:22:28;96570.13;;;6.33;100.00
740;BME280;354;42.694;23.336;2022-12-18T11:25:06;96576.44;;;6.05;100.00
740;BME280;354;42.694;23.336;2022-12-18T11:27:58;96538.91;;;6.06;100.00
740;BME280;354;42.694;23.336;2022-12-18T11:30:29;96569.41;;;6.23;100.00
740;BME280;354;42.694;23.336;2022-12-18T11:33:20;96566.00;;;6.49;100.00
740;BME280;354;42.694;23.336;2022-12-18T11:35:55;96563.78;;;6.36;100.00
740;BME280;354;42.694;23.336;2022-12-18T11:38:32;96564.84;;;6.43;100.00
740;BME280;354;42.694;23.336;2022-12-18T11:44:02;96575.47;;;6.06;100.00
740;BME280;354;42.694;23.336;2022-12-18T11:46:38;96571.88;;;6.07;100.00
740;BME280;354;42.694;23.336;2022-12-18T11:49:15;96570.63;;;6.11;100.00
740;BME280;354;42.694;23.336;2022-12-18T11:52:15;96563.59;;;6.12;100.00
740;BME280;354;42.694;23.336;2022-12-18T11:54:42;96568.59;;;6.05;100.00
740;BME280;354;42.694;23.336;2022-12-18T12:16:21;96567.56;;;6.42;100.00
740;BME280;354;42.694;23.336;2022-12-18T12:24:37;96568.66;;;6.57;100.00
740;BME280;354;42.694;23.336;2022-12-18T12:32:30;96574.25;;;6.62;100.00
740;BME280;354;42.694;23.336;2022-12-18T12:40:23;96575.84;;;6.11;100.00
740;BME280;354;42.694;23.336;2022-12-18T12:42:55;96572.75;;;5.98;100.00
740;BME280;354;42.694;23.336;2022-12-18T12:45:48;96557.81;;;5.90;100.00
740;BME280;354;42.694;23.336;2022-12-18T12:48:35;96553.41;;;5.91;100.00
740;BME280;354;42.694;23.336;2022-12-18T12:51:14;96570.22;;;6.24;100.00
740;BME280;354;42.694;23.336;2022-12-18T12:53:41;96570.13;;;6.33;100.00
740;BME280;354;42.694;23.336;2022-12-18T12:56:09;96547.88;;;6.29;100.00
740;BME280;354;42.694;23.336;2022-12-18T13:02:22;96574.31;;;6.44;100.00
740;BME280;354;42.694;23.336;2022-12-18T13:08:32;96587.66;;;6.41;100.00
740;BME280;354;42.694;23.336;2022-12-18T13:10:31;96590.31;;;6.23;100.00
740;BME280;354;42.694;23.336;2022-12-18T13:15:45;96599.63;;;6.08;100.00
740;BME280;354;42.694;23.336;2022-12-18T13:23:33;96611.97;;;6.16;100.00
740;BME280;354;42.694;23.336;2022-12-18T13:31:10;96589.13;;;6.00;100.00
740;BME280;354;42.694;23.336;2022-12-18T13:33:44;96582.78;;;6.02;100.00
740;BME280;354;42.694;23.336;2022-12-18T13:38:47;96587.09;;;5.94;100.00
740;BME280;354;42.694;23.336;2022-12-18T13:41:32;96618.13;;;6.15;100.00
740;BME280;354;42.694;23.336;2022-12-18T13:46:56;96613.50;;;6.08;100.00
740;BME280;354;42.694;23.336;2022-12-18T13:49:36;96586.19;;;6.03;100.00
740;BME280;354;42.694;23.336;2022-12-18T13:52:03;96628.97;;;6.02;100.00
740;BME280;354;42.694;23.336;2022-12-18T13:54:41;96630.66;;;5.93;100.00
740;BME280;354;42.694;23.336;2022-12-18T13:57:32;96633.13;;;5.67;100.00
740;BME280;354;42.694;23.336;2022-12-18T14:00:14;96639.22;;;5.58;100.00
740;BME280;354;42.694;23.336;2022-12-18T14:02:44;96641.59;;;5.51;100.00
740;BME280;354;42.694;23.336;2022-12-18T14:05:31;96648.78;;;5.40;100.00
740;BME280;354;42.694;23.336;2022-12-18T14:08:06;96642.59;;;5.41;100.00
740;BME280;354;42.694;23.336;2022-12-18T14:10:33;96645.06;;;5.42;100.00
740;BME280;354;42.694;23.336;2022-12-18T14:13:04;96646.56;;;5.45;100.00
740;BME280;354;42.694;23.336;2022-12-18T14:15:33;96643.78;;;5.56;100.00
740;BME280;354;42.694;23.336;2022-12-18T14:20:34;96649.13;;;5.54;100.00
740;BME280;354;42.694;23.336;2022-12-18T14:22:59;96652.81;;;5.62;100.00
740;BME280;354;42.694;23.336;2022-12-18T14:25:30;96655.50;;;5.42;100.00
740;BME280;354;42.694;23.336;2022-12-18T14:30:37;96649.94;;;5.27;100.00
740;BME280;354;42.694;23.336;2022-12-18T14:33:11;96666.09;;;5.41;100.00
740;BME280;354;42.694;23.336;2022-12-18T14:35:42;96669.56;;;5.59;100.00
740;BME280;354;42.694;23.336;2022-12-18T14:40:59;96670.91;;;5.36;100.00
740;BME280;354;42.694;23.336;2022-12-18T14:43:27;96657.63;;;5.29;100.00
740;BME280;354;42.694;23.336;2022-12-18T14:45:53;96662.69;;;5.31;100.00
740;BME280;354;42.694;23.336;2022-12-18T14:48:21;96647.47;;;5.26;100.00
740;BME280;354;42.694;23.336;2022-12-18T14:51:01;96652.44;;;5.10;100.00
740;BME280;354;42.694;23.336;2022-12-18T14:53:48;96657.66;;;5.19;100.00
740;BME280;354;42.694;23.336;2022-12-18T14:56:21;96657.38;;;5.22;100.00
740;BME280;354;42.694;23.336;2022-12-18T14:58:58;96657.41;;;5.13;100.00
740;BME280;354;42.694;23.336;2022-12-18T15:03:57;96658.38;;;5.02;100.00
740;BME280;354;42.694;23.336;2022-12-18T15:06:30;96663.59;;;5.02;100.00
740;BME280;354;42.694;23.336;2022-12-18T15:08:57;96634.28;;;4.81;100.00
740;BME280;354;42.694;23.336;2022-12-18T15:11:35;96659.78;;;4.87;100.00
740;BME280;354;42.694;23.336;2022-12-18T15:16:54;96675.72;;;4.84;100.00
740;BME280;354;42.694;23.336;2022-12-18T15:19:22;96676.94;;;4.89;100.00
740;BME280;354;42.694;23.336;2022-12-18T15:21:50;96679.81;;;4.96;100.00
740;BME280;354;42.694;23.336;2022-12-18T15:24:24;96683.25;;;4.96;100.00
740;BME280;354;42.694;23.336;2022-12-18T15:26:51;96684.22;;;4.95;100.00
740;BME280;354;42.694;23.336;2022-12-18T15:29:23;96693.13;;;4.83;100.00
740;BME280;354;42.694;23.336;2022-12-18T15:31:59;96685.75;;;4.79;100.00
740;BME280;354;42.694;23.336;2022-12-18T15:34:25;96686.25;;;4.92;100.00
740;BME280;354;42.694;23.336;2022-12-18T15:36:51;96704.78;;;4.89;100.00
740;BME280;354;42.694;23.336;2022-12-18T15:39:17;96695.47;;;4.76;100.00
740;BME280;354;42.694;23.336;2022-12-18T15:41:42;96690.66;;;4.72;100.00